sensor_id;sensor_type;location;lat;lon;timestamp;pressure;altitude;pressure_sealevel;temperature;humidity
79415;BME280;68864;44.972;19.612;2023-12-29T00:01:15;101490.78;;;5.09;79.07
79415;BME280;68864;44.972;19.612;2023-12-29T00:03:41;101492.72;;;5.08;79.61
79415;BME280;68864;44.972;19.612;2023-12-29T00:06:08;101488.94;;;5.04;79.50
79415;BME280;68864;44.972;19.612;2023-12-29T00:08:36;101491.31;;;5.11;80.75
79415;BME280;68864;44.972;19.612;2023-12-29T00:11:03;101498.84;;;5.05;81.03
79415;BME280;68864;44.972;19.612;2023-12-29T00:13:30;101494.16;;;5.06;80.62
79415;BME280;68864;44.972;19.612;2023-12-29T00:15:59;101488.19;;;4.99;80.63
79415;BME280;68864;44.972;19.612;2023-12-29T00:18:26;101495.38;;;5.00;81.34
79415;BME280;68864;44.972;19.612;2023-12-29T00:20:52;101493.41;;;5.00;81.24
79415;BME280;68864;44.972;19.612;2023-12-29T00:23:19;101489.53;;;5.01;81.87
79415;BME280;68864;44.972;19.612;2023-12-29T00:25:46;101488.19;;;4.99;82.94
79415;BME280;68864;44.972;19.612;2023-12-29T00:28:13;101496.72;;;5.02;84.51
79415;BME280;68864;44.972;19.612;2023-12-29T00:30:40;101479.31;;;5.02;84.14
79415;BME280;68864;44.972;19.612;2023-12-29T00:33:08;101489.78;;;5.05;82.95
79415;BME280;68864;44.972;19.612;2023-12-29T00:35:37;101490.56;;;5.05;81.93
79415;BME280;68864;44.972;19.612;2023-12-29T00:38:04;101486.19;;;5.04;81.96
79415;BME280;68864;44.972;19.612;2023-12-29T00:40:31;101485.78;;;5.11;83.20
79415;BME280;68864;44.972;19.612;2023-12-29T00:42:59;101481.09;;;5.11;82.72
79415;BME280;68864;44.972;19.612;2023-12-29T00:45:26;101482.28;;;5.19;83.39
79415;BME280;68864;44.972;19.612;2023-12-29T00:47:57;101481.50;;;5.18;84.87
79415;BME280;68864;44.972;19.612;2023-12-29T00:50:25;101463.97;;;5.09;84.25
79415;BME280;68864;44.972;19.612;2023-12-29T00:52:52;101464.81;;;5.10;85.64
79415;BME280;68864;44.972;19.612;2023-12-29T00:55:19;101486.00;;;5.28;84.73
79415;BME280;68864;44.972;19.612;2023-12-29T00:57:46;101481.41;;;5.24;86.86
79415;BME280;68864;44.972;19.612;2023-12-29T01:00:13;101473.81;;;5.29;85.82
79415;BME280;68864;44.972;19.612;2023-12-29T01:02:40;101478.53;;;5.29;85.84
79415;BME280;68864;44.972;19.612;2023-12-29T01:05:08;101480.38;;;5.33;85.86
79415;BME280;68864;44.972;19.612;2023-12-29T01:07:36;101487.00;;;5.32;85.01
79415;BME280;68864;44.972;19.612;2023-12-29T01:10:03;101487.13;;;5.27;84.44
79415;BME280;68864;44.972;19.612;2023-12-29T01:12:30;101490.50;;;5.24;83.74
79415;BME280;68864;44.972;19.612;2023-12-29T01:14:57;101468.81;;;5.17;84.85
79415;BME280;68864;44.972;19.612;2023-12-29T01:17:24;101482.63;;;5.17;85.62
79415;BME280;68864;44.972;19.612;2023-12-29T01:19:53;101475.44;;;5.16;84.41
79415;BME280;68864;44.972;19.612;2023-12-29T01:22:20;101470.53;;;5.13;84.40
79415;BME280;68864;44.972;19.612;2023-12-29T01:24:48;101475.56;;;5.11;84.55
79415;BME280;68864;44.972;19.612;2023-12-29T01:27:15;101475.31;;;5.08;85.04
79415;BME280;68864;44.972;19.612;2023-12-29T01:29:42;101470.44;;;5.05;84.52
79415;BME280;68864;44.972;19.612;2023-12-29T01:32:09;101467.44;;;5.01;84.35
79415;BME280;68864;44.972;19.612;2023-12-29T01:34:36;101461.38;;;4.99;84.99
79415;BME280;68864;44.972;19.612;2023-12-29T01:37:03;101463.34;;;4.99;85.36
79415;BME280;68864;44.972;19.612;2023-12-29T01:39:30;101472.44;;;4.99;85.52
79415;BME280;68864;44.972;19.612;2023-12-29T01:41:58;101461.63;;;5.03;86.48
79415;BME280;68864;44.972;19.612;2023-12-29T01:44:25;101461.09;;;5.01;85.57
79415;BME280;68864;44.972;19.612;2023-12-29T01:46:55;101463.34;;;4.99;84.89
79415;BME280;68864;44.972;19.612;2023-12-29T01:49:23;101465.31;;;4.98;84.44
79415;BME280;68864;44.972;19.612;2023-12-29T01:51:50;101459.13;;;4.88;84.79
79415;BME280;68864;44.972;19.612;2023-12-29T01:54:19;101449.72;;;4.89;84.31
79415;BME280;68864;44.972;19.612;2023-12-29T01:56:48;101460.44;;;4.76;83.89
79415;BME280;68864;44.972;19.612;2023-12-29T01:59:19;101451.09;;;4.72;84.32
79415;BME280;68864;44.972;19.612;2023-12-29T02:01:46;101444.34;;;4.65;83.78
79415;BME280;68864;44.972;19.612;2023-12-29T02:04:14;101456.00;;;4.62;83.99
79415;BME280;68864;44.972;19.612;2023-12-29T02:06:41;101457.78;;;4.53;82.68
79415;BME280;68864;44.972;19.612;2023-12-29T02:09:09;101450.41;;;4.48;83.00
79415;BME280;68864;44.972;19.612;2023-12-29T02:11:38;101453.56;;;4.42;83.09
79415;BME280;68864;44.972;19.612;2023-12-29T02:14:04;101461.59;;;4.24;81.95
79415;BME280;68864;44.972;19.612;2023-12-29T02:16:40;101448.66;;;4.20;82.28
79415;BME280;68864;44.972;19.612;2023-12-29T02:19:22;101453.97;;;4.16;82.38
79415;BME280;68864;44.972;19.612;2023-12-29T02:21:51;101448.09;;;4.04;82.75
79415;BME280;68864;44.972;19.612;2023-12-29T02:24:18;101442.22;;;3.92;82.14
79415;BME280;68864;44.972;19.612;2023-12-29T02:26:50;101440.97;;;3.79;82.00
79415;BME280;68864;44.972;19.612;2023-12-29T02:29:21;101440.59;;;3.67;82.80
79415;BME280;68864;44.972;19.612;2023-12-29T02:31:52;101442.53;;;3.67;82.23
79415;BME280;68864;44.972;19.612;2023-12-29T02:34:22;101438.28;;;3.55;82.57
79415;BME280;68864;44.972;19.612;2023-12-29T02:36:50;101444.97;;;3.49;82.71
79415;BME280;68864;44.972;19.612;2023-12-29T02:39:17;101436.72;;;3.49;83.52
79415;BME280;68864;44.972;19.612;2023-12-29T02:41:46;101425.97;;;3.48;82.82
79415;BME280;68864;44.972;19.612;2023-12-29T02:44:13;101426.03;;;3.43;83.71
79415;BME280;68864;44.972;19.612;2023-12-29T02:46:40;101426.25;;;3.46;83.83
79415;BME280;68864;44.972;19.612;2023-12-29T02:49:07;101424.13;;;3.43;83.89
79415;BME280;68864;44.972;19.612;2023-12-29T02:51:38;101420.81;;;3.41;83.80
79415;BME280;68864;44.972;19.612;2023-12-29T02:54:05;101422.53;;;3.37;84.33
79415;BME280;68864;44.972;19.612;2023-12-29T02:56:33;101426.94;;;3.38;84.50
79415;BME280;68864;44.972;19.612;2023-12-29T02:59:02;101420.66;;;3.33;85.26
79415;BME280;68864;44.972;19.612;2023-12-29T03:01:29;101429.69;;;3.38;84.87
79415;BME280;68864;44.972;19.612;2023-12-29T03:03:55;101437.19;;;3.33;85.62
79415;BME280;68864;44.972;19.612;2023-12-29T03:06:23;101428.47;;;3.26;85.17
79415;BME280;68864;44.972;19.612;2023-12-29T03:08:50;101430.69;;;3.24;85.30
79415;BME280;68864;44.972;19.612;2023-12-29T03:11:18;101424.13;;;3.19;85.92
79415;BME280;68864;44.972;19.612;2023-12-29T03:13:45;101423.81;;;3.21;86.06
79415;BME280;68864;44.972;19.612;2023-12-29T03:16:14;101425.38;;;3.32;85.50
79415;BME280;68864;44.972;19.612;2023-12-29T03:18:40;101426.97;;;3.33;85.96
79415;BME280;68864;44.972;19.612;2023-12-29T03:21:07;101432.84;;;3.27;85.64
79415;BME280;68864;44.972;19.612;2023-12-29T03:23:34;101429.88;;;3.23;86.35
79415;BME280;68864;44.972;19.612;2023-12-29T03:26:01;101419.13;;;3.22;85.69
79415;BME280;68864;44.972;19.612;2023-12-29T03:28:28;101423.91;;;3.16;86.13
79415;BME280;68864;44.972;19.612;2023-12-29T03:30:55;101424.44;;;3.18;85.43
79415;BME280;68864;44.972;19.612;2023-12-29T03:33:23;101421.59;;;3.23;85.98
79415;BME280;68864;44.972;19.612;2023-12-29T03:35:50;101423.75;;;3.26;85.50
79415;BME280;68864;44.972;19.612;2023-12-29T03:38:17;101418.56;;;3.25;85.70
79415;BME280;68864;44.972;19.612;2023-12-29T03:40:44;101414.63;;;3.31;85.53
79415;BME280;68864;44.972;19.612;2023-12-29T03:43:11;101426.69;;;3.35;87.43
79415;BME280;68864;44.972;19.612;2023-12-29T03:45:38;101417.84;;;3.38;88.35
79415;BME280;68864;44.972;19.612;2023-12-29T03:48:05;101419.44;;;3.44;88.13
79415;BME280;68864;44.972;19.612;2023-12-29T03:50:35;101411.75;;;3.41;87.84
79415;BME280;68864;44.972;19.612;2023-12-29T03:53:02;101418.88;;;3.42;87.50
79415;BME280;68864;44.972;19.612;2023-12-29T03:55:29;101416.38;;;3.45;86.87
79415;BME280;68864;44.972;19.612;2023-12-29T03:57:56;101417.19;;;3.46;87.09
79415;BME280;68864;44.972;19.612;2023-12-29T04:00:24;101422.03;;;3.54;86.68
79415;BME280;68864;44.972;19.612;2023-12-29T04:02:51;101421.16;;;3.58;86.40
79415;BME280;68864;44.972;19.612;2023-12-29T04:05:18;101423.31;;;3.62;86.55
79415;BME280;68864;44.972;19.612;2023-12-29T04:07:46;101419.16;;;3.64;86.30
79415;BME280;68864;44.972;19.612;2023-12-29T04:10:13;101414.31;;;3.56;86.89
79415;BME280;68864;44.972;19.612;2023-12-29T04:12:40;101411.00;;;3.54;86.91
79415;BME280;68864;44.972;19.612;2023-12-29T04:15:08;101421.16;;;3.58;88.99
79415;BME280;68864;44.972;19.612;2023-12-29T04:17:35;101419.16;;;3.64;87.93
79415;BME280;68864;44.972;19.612;2023-12-29T04:20:02;101411.00;;;3.54;87.44
79415;BME280;68864;44.972;19.612;2023-12-29T04:22:29;101420.34;;;3.58;90.22
79415;BME280;68864;44.972;19.612;2023-12-29T04:24:57;101414.75;;;3.63;88.76
79415;BME280;68864;44.972;19.612;2023-12-29T04:27:24;101425.25;;;3.61;88.92
79415;BME280;68864;44.972;19.612;2023-12-29T04:29:51;101409.97;;;3.50;89.23
79415;BME280;68864;44.972;19.612;2023-12-29T04:32:18;101427.19;;;3.60;90.12
79415;BME280;68864;44.972;19.612;2023-12-29T04:34:45;101424.50;;;3.55;88.59
79415;BME280;68864;44.972;19.612;2023-12-29T04:37:12;101430.66;;;3.47;89.12
79415;BME280;68864;44.972;19.612;2023-12-29T04:39:39;101432.91;;;3.45;87.97
79415;BME280;68864;44.972;19.612;2023-12-29T04:42:07;101417.19;;;3.46;88.38
79415;BME280;68864;44.972;19.612;2023-12-29T04:44:34;101430.94;;;3.46;87.56
79415;BME280;68864;44.972;19.612;2023-12-29T04:47:01;101430.44;;;3.44;86.80
79415;BME280;68864;44.972;19.612;2023-12-29T04:49:28;101423.88;;;3.40;87.21
79415;BME280;68864;44.972;19.612;2023-12-29T04:51:55;101426.69;;;3.35;87.25
79415;BME280;68864;44.972;19.612;2023-12-29T04:54:23;101442.34;;;3.39;87.13
79415;BME280;68864;44.972;19.612;2023-12-29T04:56:50;101440.66;;;3.43;86.17
79415;BME280;68864;44.972;19.612;2023-12-29T04:59:18;101437.97;;;3.38;85.90
79415;BME280;68864;44.972;19.612;2023-12-29T05:01:45;101448.72;;;3.35;86.44
79415;BME280;68864;44.972;19.612;2023-12-29T05:04:12;101435.13;;;3.43;86.53
79415;BME280;68864;44.972;19.612;2023-12-29T05:06:40;101431.56;;;3.43;86.29
79415;BME280;68864;44.972;19.612;2023-12-29T05:09:07;101444.72;;;3.46;85.83
79415;BME280;68864;44.972;19.612;2023-12-29T05:11:34;101435.81;;;3.54;85.58
79415;BME280;68864;44.972;19.612;2023-12-29T05:14:01;101441.50;;;3.63;86.49
79415;BME280;68864;44.972;19.612;2023-12-29T05:16:29;101441.13;;;3.69;85.50
79415;BME280;68864;44.972;19.612;2023-12-29T05:18:56;101446.00;;;3.77;85.25
79415;BME280;68864;44.972;19.612;2023-12-29T05:21:23;101443.22;;;3.77;86.08
79415;BME280;68864;44.972;19.612;2023-12-29T05:23:51;101449.88;;;3.76;86.04
79415;BME280;68864;44.972;19.612;2023-12-29T05:26:18;101443.34;;;3.67;85.48
79415;BME280;68864;44.972;19.612;2023-12-29T05:28:45;101453.28;;;3.68;85.48
79415;BME280;68864;44.972;19.612;2023-12-29T05:31:12;101451.34;;;3.69;85.35
79415;BME280;68864;44.972;19.612;2023-12-29T05:33:40;101449.47;;;3.64;84.90
79415;BME280;68864;44.972;19.612;2023-12-29T05:36:08;101451.69;;;3.62;85.23
79415;BME280;68864;44.972;19.612;2023-12-29T05:38:34;101446.84;;;3.54;85.03
79415;BME280;68864;44.972;19.612;2023-12-29T05:41:02;101440.28;;;3.50;85.41
79415;BME280;68864;44.972;19.612;2023-12-29T05:43:30;101436.72;;;3.49;86.60
79415;BME280;68864;44.972;19.612;2023-12-29T05:45:58;101446.84;;;3.54;86.53
79415;BME280;68864;44.972;19.612;2023-12-29T05:48:25;101439.41;;;3.54;86.53
79415;BME280;68864;44.972;19.612;2023-12-29T05:50:53;101443.88;;;3.50;86.36
79415;BME280;68864;44.972;19.612;2023-12-29T05:53:20;101450.72;;;3.53;86.80
79415;BME280;68864;44.972;19.612;2023-12-29T05:55:47;101420.25;;;3.44;86.01
79415;BME280;68864;44.972;19.612;2023-12-29T05:58:14;101447.31;;;3.61;85.86
79415;BME280;68864;44.972;19.612;2023-12-29T06:00:42;101454.16;;;3.64;85.22
79415;BME280;68864;44.972;19.612;2023-12-29T06:03:10;101456.94;;;3.64;85.63
79415;BME280;68864;44.972;19.612;2023-12-29T06:05:37;101440.22;;;3.55;85.11
79415;BME280;68864;44.972;19.612;2023-12-29T06:08:06;101447.53;;;3.65;84.41
79415;BME280;68864;44.972;19.612;2023-12-29T06:10:33;101452.69;;;3.71;84.94
79415;BME280;68864;44.972;19.612;2023-12-29T06:13:01;101444.88;;;3.78;86.06
79415;BME280;68864;44.972;19.612;2023-12-29T06:15:29;101443.97;;;3.83;84.86
79415;BME280;68864;44.972;19.612;2023-12-29T06:17:56;101444.59;;;3.98;84.46
79415;BME280;68864;44.972;19.612;2023-12-29T06:20:23;101442.69;;;4.13;82.99
79415;BME280;68864;44.972;19.612;2023-12-29T06:22:50;101443.16;;;4.20;83.04
79415;BME280;68864;44.972;19.612;2023-12-29T06:25:19;101453.50;;;4.28;83.00
79415;BME280;68864;44.972;19.612;2023-12-29T06:27:46;101454.97;;;4.39;81.40
79415;BME280;68864;44.972;19.612;2023-12-29T06:30:14;101452.06;;;4.49;81.94
79415;BME280;68864;44.972;19.612;2023-12-29T06:32:41;101455.34;;;4.51;81.28
79415;BME280;68864;44.972;19.612;2023-12-29T06:35:08;101453.13;;;4.67;81.60
79415;BME280;68864;44.972;19.612;2023-12-29T06:37:36;101445.16;;;4.98;80.90
79415;BME280;68864;44.972;19.612;2023-12-29T06:40:04;101437.06;;;5.29;80.32
79415;BME280;68864;44.972;19.612;2023-12-29T06:42:33;101445.34;;;5.70;77.97
79415;BME280;68864;44.972;19.612;2023-12-29T06:45:00;101435.81;;;5.89;77.25
79415;BME280;68864;44.972;19.612;2023-12-29T06:47:27;101437.00;;;6.11;76.54
79415;BME280;68864;44.972;19.612;2023-12-29T06:49:54;101432.03;;;6.21;76.27
79415;BME280;68864;44.972;19.612;2023-12-29T06:52:22;101434.53;;;6.54;75.55
79415;BME280;68864;44.972;19.612;2023-12-29T06:54:49;101432.03;;;6.97;74.54
79415;BME280;68864;44.972;19.612;2023-12-29T06:57:16;101435.69;;;7.14;73.44
79415;BME280;68864;44.972;19.612;2023-12-29T06:59:44;101426.16;;;8.55;69.14
79415;BME280;68864;44.972;19.612;2023-12-29T07:02:11;101421.94;;;10.42;62.39
79415;BME280;68864;44.972;19.612;2023-12-29T07:04:41;101417.69;;;11.99;56.53
79415;BME280;68864;44.972;19.612;2023-12-29T07:07:09;101424.94;;;11.27;57.03
79415;BME280;68864;44.972;19.612;2023-12-29T07:09:38;101432.50;;;10.07;61.38
79415;BME280;68864;44.972;19.612;2023-12-29T07:12:05;101431.13;;;9.92;62.14
79415;BME280;68864;44.972;19.612;2023-12-29T07:14:32;101430.72;;;9.82;63.21
79415;BME280;68864;44.972;19.612;2023-12-29T07:17:02;101438.75;;;9.83;62.77
79415;BME280;68864;44.972;19.612;2023-12-29T07:19:29;101409.72;;;9.84;63.54
79415;BME280;68864;44.972;19.612;2023-12-29T07:22:02;101390.84;;;11.94;57.25
79415;BME280;68864;44.972;19.612;2023-12-29T07:24:30;101386.13;;;12.66;54.76
79415;BME280;68864;44.972;19.612;2023-12-29T07:26:57;101408.97;;;12.68;54.49
79415;BME280;68864;44.972;19.612;2023-12-29T07:29:24;101409.06;;;12.04;55.42
79415;BME280;68864;44.972;19.612;2023-12-29T07:31:51;101413.53;;;11.44;58.23
79415;BME280;68864;44.972;19.612;2023-12-29T07:34:19;101416.56;;;11.27;58.40
79415;BME280;68864;44.972;19.612;2023-12-29T07:36:46;101415.16;;;11.57;57.63
79415;BME280;68864;44.972;19.612;2023-12-29T07:39:13;101406.66;;;11.66;57.66
79415;BME280;68864;44.972;19.612;2023-12-29T07:41:40;101406.50;;;12.11;55.94
79415;BME280;68864;44.972;19.612;2023-12-29T07:44:08;101400.72;;;13.50;52.45
79415;BME280;68864;44.972;19.612;2023-12-29T07:46:37;101398.94;;;14.12;50.48
79415;BME280;68864;44.972;19.612;2023-12-29T07:49:04;101369.91;;;16.06;45.76
79415;BME280;68864;44.972;19.612;2023-12-29T07:51:32;101362.16;;;18.09;40.00
79415;BME280;68864;44.972;19.612;2023-12-29T07:53:59;101400.59;;;17.70;41.74
79415;BME280;68864;44.972;19.612;2023-12-29T07:56:26;101400.53;;;16.75;43.81
79415;BME280;68864;44.972;19.612;2023-12-29T07:58:53;101383.63;;;16.75;43.53
79415;BME280;68864;44.972;19.612;2023-12-29T08:01:20;101368.44;;;17.78;40.89
79415;BME280;68864;44.972;19.612;2023-12-29T08:03:47;101376.81;;;18.40;39.67
79415;BME280;68864;44.972;19.612;2023-12-29T08:06:14;101365.97;;;20.15;36.15
79415;BME280;68864;44.972;19.612;2023-12-29T08:08:42;101365.88;;;21.13;34.11
79415;BME280;68864;44.972;19.612;2023-12-29T08:11:13;101388.00;;;21.77;32.75
79415;BME280;68864;44.972;19.612;2023-12-29T08:13:41;101395.25;;;21.40;33.82
79415;BME280;68864;44.972;19.612;2023-12-29T08:16:08;101392.84;;;21.35;32.88
79415;BME280;68864;44.972;19.612;2023-12-29T08:18:35;101386.22;;;21.97;31.81
79415;BME280;68864;44.972;19.612;2023-12-29T08:21:02;101382.25;;;21.84;32.11
79415;BME280;68864;44.972;19.612;2023-12-29T08:23:28;101400.00;;;21.99;31.98
79415;BME280;68864;44.972;19.612;2023-12-29T08:25:57;101403.31;;;23.19;29.72
79415;BME280;68864;44.972;19.612;2023-12-29T08:28:25;101400.44;;;23.92;29.37
79415;BME280;68864;44.972;19.612;2023-12-29T08:30:52;101398.25;;;24.00;28.53
79415;BME280;68864;44.972;19.612;2023-12-29T08:33:19;101394.28;;;24.57;28.14
79415;BME280;68864;44.972;19.612;2023-12-29T08:35:46;101400.63;;;24.64;27.86
79415;BME280;68864;44.972;19.612;2023-12-29T08:38:13;101407.13;;;25.37;26.55
79415;BME280;68864;44.972;19.612;2023-12-29T08:40:40;101403.66;;;25.61;26.25
79415;BME280;68864;44.972;19.612;2023-12-29T08:43:09;101412.06;;;25.00;25.91
79415;BME280;68864;44.972;19.612;2023-12-29T08:45:36;101407.84;;;26.47;25.25
79415;BME280;68864;44.972;19.612;2023-12-29T08:48:04;101409.69;;;27.08;23.97
79415;BME280;68864;44.972;19.612;2023-12-29T08:50:31;101411.69;;;26.82;24.40
79415;BME280;68864;44.972;19.612;2023-12-29T08:52:58;101420.41;;;25.92;24.81
79415;BME280;68864;44.972;19.612;2023-12-29T08:55:25;101417.81;;;27.22;23.74
79415;BME280;68864;44.972;19.612;2023-12-29T08:57:52;101411.81;;;28.14;22.50
79415;BME280;68864;44.972;19.612;2023-12-29T09:00:21;101402.47;;;28.66;21.83
79415;BME280;68864;44.972;19.612;2023-12-29T09:02:48;101399.16;;;28.99;22.13
79415;BME280;68864;44.972;19.612;2023-12-29T09:05:15;101389.19;;;29.12;21.08
79415;BME280;68864;44.972;19.612;2023-12-29T09:07:42;101395.03;;;29.98;21.45
79415;BME280;68864;44.972;19.612;2023-12-29T09:10:08;101401.56;;;29.31;20.53
79415;BME280;68864;44.972;19.612;2023-12-29T09:12:37;101393.31;;;30.79;20.33
79415;BME280;68864;44.972;19.612;2023-12-29T09:15:05;101392.59;;;30.42;19.92
79415;BME280;68864;44.972;19.612;2023-12-29T09:17:33;101383.19;;;30.51;19.84
79415;BME280;68864;44.972;19.612;2023-12-29T09:20:01;101383.97;;;30.33;20.92
79415;BME280;68864;44.972;19.612;2023-12-29T09:22:28;101388.31;;;31.07;20.16
79415;BME280;68864;44.972;19.612;2023-12-29T09:24:55;101391.44;;;31.51;19.58
79415;BME280;68864;44.972;19.612;2023-12-29T09:27:22;101395.03;;;31.70;18.79
79415;BME280;68864;44.972;19.612;2023-12-29T09:29:50;101403.31;;;31.77;19.47
79415;BME280;68864;44.972;19.612;2023-12-29T09:32:17;101402.50;;;32.39;18.51
79415;BME280;68864;44.972;19.612;2023-12-29T09:34:45;101402.44;;;32.62;18.17
79415;BME280;68864;44.972;19.612;2023-12-29T09:37:12;101398.41;;;33.88;17.11
79415;BME280;68864;44.972;19.612;2023-12-29T09:39:39;101398.78;;;33.41;17.55
79415;BME280;68864;44.972;19.612;2023-12-29T09:42:07;101389.94;;;33.85;17.67
79415;BME280;68864;44.972;19.612;2023-12-29T09:44:38;101391.28;;;33.84;17.21
79415;BME280;68864;44.972;19.612;2023-12-29T09:47:07;101395.94;;;34.02;16.95
79415;BME280;68864;44.972;19.612;2023-12-29T09:49:37;101400.44;;;34.23;17.03
79415;BME280;68864;44.972;19.612;2023-12-29T09:52:07;101393.97;;;34.13;16.68
79415;BME280;68864;44.972;19.612;2023-12-29T09:54:35;101389.53;;;34.18;16.82
79415;BME280;68864;44.972;19.612;2023-12-29T09:57:04;101390.47;;;34.04;16.94
79415;BME280;68864;44.972;19.612;2023-12-29T09:59:34;101389.13;;;33.44;17.30
79415;BME280;68864;44.972;19.612;2023-12-29T10:02:04;101382.22;;;31.05;19.29
79415;BME280;68864;44.972;19.612;2023-12-29T10:04:31;101376.53;;;29.41;21.17
79415;BME280;68864;44.972;19.612;2023-12-29T10:07:02;101376.34;;;28.95;21.93
79415;BME280;68864;44.972;19.612;2023-12-29T10:09:33;101384.88;;;28.12;22.64
79415;BME280;68864;44.972;19.612;2023-12-29T10:12:02;101402.84;;;28.99;21.99
79415;BME280;68864;44.972;19.612;2023-12-29T10:14:35;101425.41;;;29.50;20.62
79415;BME280;68864;44.972;19.612;2023-12-29T10:17:09;101524.00;;;30.91;19.86
79415;BME280;68864;44.972;19.612;2023-12-29T10:19:40;101602.53;;;31.88;18.36
79415;BME280;68864;44.972;19.612;2023-12-29T10:22:11;101590.56;;;32.85;17.57
79415;BME280;68864;44.972;19.612;2023-12-29T10:24:43;101519.19;;;33.44;17.55
79415;BME280;68864;44.972;19.612;2023-12-29T10:27:11;101422.53;;;34.46;16.47
79415;BME280;68864;44.972;19.612;2023-12-29T10:29:38;101357.25;;;33.99;16.63
79415;BME280;68864;44.972;19.612;2023-12-29T10:32:06;101342.72;;;34.97;16.77
79415;BME280;68864;44.972;19.612;2023-12-29T10:34:33;101331.28;;;34.56;16.83
79415;BME280;68864;44.972;19.612;2023-12-29T10:37:00;101313.84;;;33.59;17.36
79415;BME280;68864;44.972;19.612;2023-12-29T10:39:29;101313.66;;;33.42;17.49
79415;BME280;68864;44.972;19.612;2023-12-29T10:42:05;101303.81;;;33.34;17.04
79415;BME280;68864;44.972;19.612;2023-12-29T10:44:33;101294.75;;;30.60;19.99
79415;BME280;68864;44.972;19.612;2023-12-29T10:47:07;101301.81;;;27.30;23.74
79415;BME280;68864;44.972;19.612;2023-12-29T10:49:35;101296.72;;;25.17;26.69
79415;BME280;68864;44.972;19.612;2023-12-29T10:52:11;101290.19;;;23.73;28.77
79415;BME280;68864;44.972;19.612;2023-12-29T10:54:38;101292.69;;;22.74;31.02
79415;BME280;68864;44.972;19.612;2023-12-29T10:57:09;101286.59;;;21.81;32.63
79415;BME280;68864;44.972;19.612;2023-12-29T10:59:37;101270.63;;;20.71;34.46
79415;BME280;68864;44.972;19.612;2023-12-29T11:02:04;101290.75;;;20.18;35.38
79415;BME280;68864;44.972;19.612;2023-12-29T11:04:31;101286.56;;;19.53;37.13
79415;BME280;68864;44.972;19.612;2023-12-29T11:06:58;101283.34;;;19.12;38.15
79415;BME280;68864;44.972;19.612;2023-12-29T11:09:28;101286.16;;;18.73;39.10
79415;BME280;68864;44.972;19.612;2023-12-29T11:11:57;101285.66;;;18.39;40.06
79415;BME280;68864;44.972;19.612;2023-12-29T11:14:27;101274.69;;;18.06;41.25
79415;BME280;68864;44.972;19.612;2023-12-29T11:16:55;101277.66;;;17.58;42.39
79415;BME280;68864;44.972;19.612;2023-12-29T11:19:23;101273.91;;;17.36;42.70
79415;BME280;68864;44.972;19.612;2023-12-29T11:21:51;101277.31;;;17.05;43.99
79415;BME280;68864;44.972;19.612;2023-12-29T11:24:19;101271.44;;;16.77;44.72
79415;BME280;68864;44.972;19.612;2023-12-29T11:26:45;101268.22;;;16.38;46.38
79415;BME280;68864;44.972;19.612;2023-12-29T11:29:13;101271.81;;;16.35;46.06
79415;BME280;68864;44.972;19.612;2023-12-29T11:31:41;101262.84;;;16.22;46.98
79415;BME280;68864;44.972;19.612;2023-12-29T11:34:12;101271.50;;;16.10;47.26
79415;BME280;68864;44.972;19.612;2023-12-29T11:36:45;101259.63;;;15.90;47.75
79415;BME280;68864;44.972;19.612;2023-12-29T11:39:19;101257.84;;;15.75;48.43
79415;BME280;68864;44.972;19.612;2023-12-29T11:41:54;101252.50;;;15.66;48.57
79415;BME280;68864;44.972;19.612;2023-12-29T11:44:26;101259.09;;;15.51;49.65
79415;BME280;68864;44.972;19.612;2023-12-29T11:46:56;101253.28;;;15.37;50.23
79415;BME280;68864;44.972;19.612;2023-12-29T11:49:23;101261.28;;;15.35;49.80
79415;BME280;68864;44.972;19.612;2023-12-29T11:51:50;101251.88;;;15.24;50.13
79415;BME280;68864;44.972;19.612;2023-12-29T11:54:25;101246.59;;;15.19;51.92
79415;BME280;68864;44.972;19.612;2023-12-29T11:56:52;101241.41;;;15.21;50.75
79415;BME280;68864;44.972;19.612;2023-12-29T11:59:21;101238.13;;;15.15;51.28
79415;BME280;68864;44.972;19.612;2023-12-29T12:01:49;101244.50;;;15.12;51.39
79415;BME280;68864;44.972;19.612;2023-12-29T12:04:37;101236.63;;;14.95;51.77
79415;BME280;68864;44.972;19.612;2023-12-29T12:07:07;101236.19;;;14.93;50.97
79415;BME280;68864;44.972;19.612;2023-12-29T12:09:35;101231.69;;;14.88;51.24
79415;BME280;68864;44.972;19.612;2023-12-29T12:12:01;101232.28;;;14.75;52.91
79415;BME280;68864;44.972;19.612;2023-12-29T12:14:46;101234.50;;;14.88;52.44
79415;BME280;68864;44.972;19.612;2023-12-29T12:17:27;101226.94;;;14.92;51.65
79415;BME280;68864;44.972;19.612;2023-12-29T12:19:59;101226.25;;;14.99;51.50
79415;BME280;68864;44.972;19.612;2023-12-29T12:22:30;101226.19;;;14.95;51.33
79415;BME280;68864;44.972;19.612;2023-12-29T12:24:58;101239.69;;;14.86;52.30
79415;BME280;68864;44.972;19.612;2023-12-29T12:27:25;101237.13;;;14.78;53.00
79415;BME280;68864;44.972;19.612;2023-12-29T12:29:53;101233.72;;;14.65;53.81
79415;BME280;68864;44.972;19.612;2023-12-29T12:32:23;101229.56;;;14.55;54.75
79415;BME280;68864;44.972;19.612;2023-12-29T12:34:50;101225.72;;;14.44;55.42
79415;BME280;68864;44.972;19.612;2023-12-29T12:37:22;101219.34;;;14.24;57.44
79415;BME280;68864;44.972;19.612;2023-12-29T12:39:49;101227.69;;;14.21;57.24
79415;BME280;68864;44.972;19.612;2023-12-29T12:42:17;101230.81;;;14.16;56.98
79415;BME280;68864;44.972;19.612;2023-12-29T12:44:49;101239.38;;;14.04;57.70
79415;BME280;68864;44.972;19.612;2023-12-29T12:47:25;101236.81;;;13.95;57.71
79415;BME280;68864;44.972;19.612;2023-12-29T12:49:52;101241.97;;;13.93;57.08